Time,TemperatureF,DewpointF,PressureIn,WindDirection,WindDirectionDegrees,WindSpeedMPH,WindSpeedGustMPH,Humidity,HourlyPrecipIn,Conditions,Clouds,dailyrainin,SoftwareType,DateUTC
2013-02-27 00:02:00,46.0,45.0,29.59,North,0,0.0,0.0,96,0.00,,,0.75,,2013-02-27 05:02:00,
2013-02-27 00:12:00,46.0,45.0,29.59,North,0,0.0,0.0,96,0.00,,,0.75,,2013-02-27 05:12:00,
2013-02-27 00:22:00,46.0,45.0,29.59,North,0,0.0,0.0,97,0.00,,,0.75,,2013-02-27 05:22:00,
2013-02-27 00:32:00,45.0,44.0,29.59,North,0,0.0,0.0,97,0.00,,,0.75,,2013-02-27 05:32:00,
2013-02-27 00:42:00,45.0,44.0,29.59,North,0,0.0,0.0,97,0.00,,,0.75,,2013-02-27 05:42:00,
2013-02-27 00:52:00,45.0,44.0,29.59,North,0,0.0,0.0,97,0.00,,,0.75,,2013-02-27 05:52:00,
2013-02-27 01:02:00,45.0,44.0,29.59,North,0,0.0,0.0,97,0.00,,,0.75,,2013-02-27 06:02:00,
2013-02-27 01:11:00,45.0,44.0,29.59,North,0,0.0,0.0,97,0.00,,,0.75,,2013-02-27 06:11:00,
2013-02-27 01:21:00,46.0,45.0,29.59,North,0,0.0,1.0,98,0.00,,,0.75,,2013-02-27 06:21:00,
2013-02-27 01:33:00,45.0,44.0,29.60,North,0,0.0,3.0,97,0.00,,,0.75,,2013-02-27 06:33:00,
2013-02-27 01:42:00,45.0,44.0,29.60,North,0,0.0,3.0,97,0.00,,,0.75,,2013-02-27 06:42:00,
2013-02-27 01:52:00,45.0,44.0,29.60,North,0,0.0,0.0,97,0.00,,,0.75,,2013-02-27 06:52:00,
2013-02-27 02:01:00,45.0,44.0,29.60,North,0,0.0,2.0,97,0.00,,,0.75,,2013-02-27 07:01:00,
2013-02-27 02:12:00,45.0,44.0,29.60,North,0,0.0,2.0,97,0.00,,,0.75,,2013-02-27 07:12:00,
2013-02-27 02:21:00,45.0,44.0,29.60,North,0,0.0,4.0,97,0.00,,,0.75,,2013-02-27 07:21:00,
2013-02-27 02:32:00,44.0,43.0,29.60,North,0,0.0,3.0,97,0.00,,,0.75,,2013-02-27 07:32:00,
2013-02-27 02:42:00,44.0,43.0,29.60,North,0,0.0,3.0,97,0.00,,,0.75,,2013-02-27 07:42:00,
2013-02-27 02:52:00,44.0,43.0,29.61,WNW,303,1.0,6.0,97,0.00,,,0.75,,2013-02-27 07:52:00,
2013-02-27 03:01:00,44.0,43.0,29.61,North,0,0.0,3.0,97,0.00,,,0.75,,2013-02-27 08:01:00,
2013-02-27 03:11:00,44.0,43.0,29.61,North,0,0.0,3.0,97,0.00,,,0.75,,2013-02-27 08:11:00,
2013-02-27 03:21:00,44.0,43.0,29.61,North,0,0.0,11.0,97,0.00,,,0.75,,2013-02-27 08:21:00,
2013-02-27 03:32:00,44.0,43.0,29.61,North,0,0.0,3.0,97,0.00,,,0.75,,2013-02-27 08:32:00,
2013-02-27 03:42:00,44.0,43.0,29.61,North,0,0.0,3.0,97,0.00,,,0.75,,2013-02-27 08:42:00,
2013-02-27 03:53:00,44.0,43.0,29.60,North,0,0.0,2.0,97,0.00,,,0.75,,2013-02-27 08:53:00,
2013-02-27 04:02:00,44.0,43.0,29.59,North,0,0.0,5.0,97,0.00,,,0.75,,2013-02-27 09:02:00,
2013-02-27 04:12:00,44.0,43.0,29.59,North,0,0.0,5.0,97,0.00,,,0.75,,2013-02-27 09:12:00,
2013-02-27 04:22:00,44.0,43.0,29.60,North,0,0.0,6.0,97,0.00,,,0.75,,2013-02-27 09:22:00,
2013-02-27 04:32:00,44.0,43.0,29.61,ENE,73,1.0,5.0,97,0.00,,,0.75,,2013-02-27 09:32:00,
2013-02-27 04:41:00,44.0,43.0,29.61,ENE,73,1.0,5.0,97,0.00,,,0.75,,2013-02-27 09:41:00,
2013-02-27 04:52:00,44.0,43.0,29.61,North,0,0.0,8.0,96,0.00,,,0.75,,2013-02-27 09:52:00,
2013-02-27 05:01:00,44.0,43.0,29.62,North,0,0.0,8.0,95,0.00,,,0.75,,2013-02-27 10:01:00,
2013-02-27 05:12:00,44.0,43.0,29.62,North,0,0.0,8.0,95,0.00,,,0.75,,2013-02-27 10:12:00,
2013-02-27 05:22:00,44.0,42.0,29.63,North,0,0.0,7.0,94,0.00,,,0.75,,2013-02-27 10:22:00,
2013-02-27 05:32:00,44.0,42.0,29.64,North,2,2.0,9.0,93,0.00,,,0.75,,2013-02-27 10:32:00,
2013-02-27 05:42:00,44.0,42.0,29.64,North,2,2.0,9.0,93,0.00,,,0.75,,2013-02-27 10:42:00,
2013-02-27 05:53:00,43.0,41.0,29.64,North,0,0.0,5.0,93,0.00,,,0.75,,2013-02-27 10:53:00,
2013-02-27 06:02:00,43.0,41.0,29.64,North,0,0.0,4.0,93,0.00,,,0.75,,2013-02-27 11:02:00,
2013-02-27 06:12:00,43.0,41.0,29.64,North,0,0.0,4.0,93,0.00,,,0.75,,2013-02-27 11:12:00,
2013-02-27 06:22:00,43.0,41.0,29.65,North,0,0.0,2.0,94,0.00,,,0.75,,2013-02-27 11:22:00,
2013-02-27 06:32:00,43.0,41.0,29.65,North,0,0.0,2.0,94,0.00,,,0.75,,2013-02-27 11:32:00,
2013-02-27 06:42:00,43.0,41.0,29.65,North,0,0.0,2.0,94,0.00,,,0.75,,2013-02-27 11:42:00,
2013-02-27 06:52:00,43.0,41.0,29.66,West,269,1.0,8.0,93,0.00,,,0.75,,2013-02-27 11:52:00,
2013-02-27 07:02:00,43.0,41.0,29.66,North,0,0.0,4.0,93,0.00,,,0.75,,2013-02-27 12:02:00,
2013-02-27 07:13:00,43.0,41.0,29.66,North,0,0.0,4.0,93,0.00,,,0.75,,2013-02-27 12:13:00,
2013-02-27 07:22:00,42.0,40.0,29.68,North,0,0.0,5.0,93,0.00,,,0.75,,2013-02-27 12:22:00,
2013-02-27 07:33:00,42.0,40.0,29.68,North,0,0.0,5.0,93,0.00,,,0.75,,2013-02-27 12:33:00,
2013-02-27 07:42:00,42.0,40.0,29.68,North,0,0.0,5.0,93,0.00,,,0.75,,2013-02-27 12:42:00,
2013-02-27 07:53:00,43.0,41.0,29.70,North,0,0.0,3.0,93,0.00,,,0.74,,2013-02-27 12:53:00,
2013-02-27 08:02:00,43.0,41.0,29.70,North,0,0.0,4.0,93,0.00,,,0.74,,2013-02-27 13:02:00,
2013-02-27 08:12:00,43.0,41.0,29.70,North,0,0.0,4.0,93,0.00,,,0.74,,2013-02-27 13:12:00,
2013-02-27 08:22:00,43.0,41.0,29.70,North,0,0.0,4.0,93,0.00,,,0.74,,2013-02-27 13:22:00,
2013-02-27 08:32:00,43.0,41.0,29.71,North,0,0.0,3.0,93,0.00,,,0.72,,2013-02-27 13:32:00,
2013-02-27 08:42:00,43.0,41.0,29.71,North,0,0.0,3.0,93,0.00,,,0.72,,2013-02-27 13:42:00,
2013-02-27 08:52:00,44.0,42.0,29.73,North,0,0.0,5.0,91,0.00,,,0.70,,2013-02-27 13:52:00,
2013-02-27 09:02:00,45.0,43.0,29.74,North,0,0.0,5.0,91,0.00,,,0.69,,2013-02-27 14:02:00,
2013-02-27 09:12:00,45.0,43.0,29.74,North,0,0.0,5.0,91,0.00,,,0.69,,2013-02-27 14:12:00,
2013-02-27 09:22:00,45.0,42.0,29.74,North,0,0.0,5.0,88,0.00,,,0.68,,2013-02-27 14:22:00,
2013-02-27 09:32:00,46.0,42.0,29.74,North,0,0.0,5.0,87,0.00,,,0.67,,2013-02-27 14:32:00,
2013-02-27 09:42:00,46.0,42.0,29.74,North,0,0.0,5.0,87,0.00,,,0.67,,2013-02-27 14:42:00,
2013-02-27 09:52:00,48.0,42.0,29.74,ENE,77,1.0,5.0,80,0.00,,,0.64,,2013-02-27 14:52:00,
2013-02-27 10:02:00,49.0,42.0,29.74,NNW,344,2.0,7.0,78,0.00,,,0.61,,2013-02-27 15:02:00,
2013-02-27 10:12:00,49.0,42.0,29.74,NNW,344,2.0,7.0,78,0.00,,,0.61,,2013-02-27 15:12:00,
2013-02-27 10:22:00,50.0,42.0,29.73,North,11,3.0,5.0,75,0.00,,,0.60,,2013-02-27 15:22:00,
2013-02-27 10:32:00,50.0,42.0,29.73,SSE,161,2.0,6.0,74,0.00,,,0.58,,2013-02-27 15:32:00,
2013-02-27 10:42:00,50.0,42.0,29.73,SSE,161,2.0,6.0,74,0.00,,,0.58,,2013-02-27 15:42:00,
2013-02-27 10:52:00,52.0,43.0,29.75,SE,128,1.0,5.0,72,0.00,,,0.56,,2013-02-27 15:52:00,
2013-02-27 11:02:00,53.0,42.0,29.75,South,181,2.0,5.0,66,0.00,,,0.54,,2013-02-27 16:02:00,
2013-02-27 11:12:00,53.0,42.0,29.75,South,181,2.0,5.0,66,0.00,,,0.54,,2013-02-27 16:12:00,
2013-02-27 11:22:00,53.0,41.0,29.75,West,269,2.0,7.0,63,0.00,,,0.52,,2013-02-27 16:22:00,
2013-02-27 11:32:00,54.0,41.0,29.75,North,0,0.0,11.0,61,0.00,,,0.50,,2013-02-27 16:32:00,
2013-02-27 11:42:00,54.0,41.0,29.75,North,0,0.0,11.0,61,0.00,,,0.50,,2013-02-27 16:42:00,
2013-02-27 11:52:00,54.0,40.0,29.75,NNW,334,1.0,10.0,59,0.00,,,0.48,,2013-02-27 16:52:00,
2013-02-27 12:02:00,56.0,40.0,29.74,NW,307,1.0,6.0,54,0.00,,,0.44,,2013-02-27 17:02:00,
2013-02-27 12:11:00,56.0,40.0,29.74,NW,307,1.0,6.0,54,0.00,,,0.44,,2013-02-27 17:11:00,
2013-02-27 12:21:00,56.0,39.0,29.74,SW,217,2.0,7.0,53,0.01,,,0.42,,2013-02-27 17:21:00,
2013-02-27 12:32:00,56.0,38.0,29.73,South,184,2.0,6.0,51,0.01,,,0.41,,2013-02-27 17:32:00,
2013-02-27 12:42:00,56.0,38.0,29.73,South,184,2.0,6.0,51,0.01,,,0.41,,2013-02-27 17:42:00,
2013-02-27 12:52:00,56.0,39.0,29.72,North,351,3.0,8.0,52,0.01,,,0.37,,2013-02-27 17:52:00,
2013-02-27 13:02:00,57.0,40.0,29.72,North,9,1.0,9.0,52,0.01,,,0.31,,2013-02-27 18:02:00,
2013-02-27 13:11:00,57.0,40.0,29.72,North,9,1.0,9.0,52,0.01,,,0.31,,2013-02-27 18:11:00,
2013-02-27 13:22:00,57.0,37.0,29.72,NNW,327,2.0,8.0,47,0.00,,,0.27,,2013-02-27 18:22:00,
2013-02-27 13:32:00,58.0,38.0,29.70,SW,222,2.0,11.0,48,0.00,,,0.23,,2013-02-27 18:32:00,
2013-02-27 13:42:00,58.0,38.0,29.70,SW,222,2.0,11.0,48,0.00,,,0.23,,2013-02-27 18:42:00,
2013-02-27 13:52:00,58.0,37.0,29.70,SSE,154,1.0,7.0,45,0.00,,,0.20,,2013-02-27 18:52:00,
2013-02-27 14:01:00,58.0,36.0,29.70,WNW,300,3.0,10.0,44,0.00,,,0.19,,2013-02-27 19:01:00,
2013-02-27 14:12:00,58.0,36.0,29.70,WNW,300,3.0,10.0,44,0.00,,,0.19,,2013-02-27 19:12:00,
2013-02-27 14:21:00,60.0,39.0,29.69,SSW,209,2.0,6.0,45,0.00,,,0.16,,2013-02-27 19:21:00,
2013-02-27 14:32:00,60.0,37.0,29.69,SSE,158,4.0,9.0,43,0.00,,,0.13,,2013-02-27 19:32:00,
2013-02-27 14:42:00,60.0,37.0,29.69,SSE,158,4.0,9.0,43,0.00,,,0.13,,2013-02-27 19:42:00,
2013-02-27 14:52:00,60.0,37.0,29.69,SSE,158,4.0,9.0,43,0.00,,,0.13,,2013-02-27 19:52:00,
2013-02-27 15:01:00,60.0,37.0,29.69,North,350,2.0,10.0,43,0.00,,,0.06,,2013-02-27 20:01:00,
2013-02-27 15:12:00,60.0,37.0,29.69,North,350,2.0,10.0,43,0.00,,,0.06,,2013-02-27 20:12:00,
2013-02-27 15:22:00,60.0,38.0,29.68,ESE,119,2.0,9.0,44,0.00,,,0.06,,2013-02-27 20:22:00,
2013-02-27 15:32:00,60.0,38.0,29.68,ESE,119,2.0,9.0,44,0.00,,,0.06,,2013-02-27 20:32:00,
2013-02-27 15:42:00,60.0,38.0,29.68,ESE,119,2.0,9.0,44,0.00,,,0.06,,2013-02-27 20:42:00,
2013-02-27 15:52:00,60.0,39.0,29.68,NW,318,2.0,7.0,45,0.00,,,0.04,,2013-02-27 20:52:00,
2013-02-27 16:02:00,60.0,37.0,29.68,NW,313,2.0,7.0,43,0.00,,,0.03,,2013-02-27 21:02:00,
2013-02-27 16:11:00,60.0,37.0,29.68,NW,313,2.0,7.0,43,0.00,,,0.03,,2013-02-27 21:11:00,
2013-02-27 16:22:00,59.0,37.0,29.67,South,179,2.0,6.0,44,0.00,,,0.03,,2013-02-27 21:22:00,
2013-02-27 16:32:00,59.0,38.0,29.67,WNW,288,1.0,7.0,46,0.00,,,0.03,,2013-02-27 21:32:00,
2013-02-27 16:42:00,59.0,38.0,29.67,WNW,288,1.0,7.0,46,0.00,,,0.03,,2013-02-27 21:42:00,
2013-02-27 16:52:00,59.0,39.0,29.67,SE,132,1.0,5.0,48,0.00,,,0.03,,2013-02-27 21:52:00,
2013-02-27 17:02:00,59.0,39.0,29.67,SE,132,1.0,5.0,48,0.00,,,0.03,,2013-02-27 22:02:00,
2013-02-27 17:11:00,59.0,39.0,29.67,SE,132,1.0,5.0,48,0.00,,,0.03,,2013-02-27 22:11:00,
2013-02-27 17:21:00,58.0,39.0,29.67,SSE,164,2.0,6.0,49,0.00,,,0.02,,2013-02-27 22:21:00,
2013-02-27 17:32:00,58.0,39.0,29.67,North,0,0.0,4.0,50,0.00,,,0.01,,2013-02-27 22:32:00,
2013-02-27 17:42:00,58.0,39.0,29.67,North,0,0.0,4.0,50,0.00,,,0.01,,2013-02-27 22:42:00,
2013-02-27 17:51:00,57.0,40.0,29.68,North,0,0.0,5.0,52,0.00,,,0.01,,2013-02-27 22:51:00,
2013-02-27 18:01:00,56.0,40.0,29.67,SE,138,1.0,5.0,55,0.00,,,0.01,,2013-02-27 23:01:00,
2013-02-27 18:11:00,56.0,40.0,29.67,SE,138,1.0,5.0,55,0.00,,,0.01,,2013-02-27 23:11:00,
2013-02-27 18:21:00,55.0,41.0,29.68,North,0,0.0,3.0,60,0.00,,,0.01,,2013-02-27 23:21:00,
2013-02-27 18:32:00,53.0,42.0,29.69,North,0,0.0,0.0,65,0.00,,,0.01,,2013-02-27 23:32:00,
2013-02-27 18:42:00,53.0,42.0,29.69,North,0,0.0,0.0,65,0.00,,,0.01,,2013-02-27 23:42:00,
2013-02-27 18:52:00,51.0,42.0,29.69,North,0,0.0,0.0,71,0.00,,,0.01,,2013-02-27 23:52:00,
2013-02-27 19:02:00,50.0,42.0,29.70,North,0,0.0,0.0,73,0.00,,,0.01,,2013-02-28 00:02:00,
2013-02-27 19:12:00,50.0,42.0,29.70,North,0,0.0,0.0,73,0.00,,,0.01,,2013-02-28 00:12:00,
2013-02-27 19:21:00,49.0,42.0,29.70,North,0,0.0,0.0,77,0.00,,,0.01,,2013-02-28 00:21:00,
2013-02-27 19:32:00,47.0,41.0,29.70,North,0,0.0,0.0,81,0.00,,,0.01,,2013-02-28 00:32:00,
2013-02-27 19:42:00,47.0,41.0,29.70,North,0,0.0,0.0,81,0.00,,,0.01,,2013-02-28 00:42:00,
2013-02-27 19:52:00,46.0,41.0,29.70,North,0,0.0,0.0,83,0.00,,,0.01,,2013-02-28 00:52:00,
2013-02-27 20:01:00,45.0,40.0,29.70,North,0,0.0,0.0,84,0.00,,,0.01,,2013-02-28 01:01:00,
2013-02-27 20:22:00,45.0,41.0,29.70,SE,141,2.0,4.0,85,0.00,,,0.01,,2013-02-28 01:22:00,
2013-02-27 20:32:00,45.0,41.0,29.70,North,0,0.0,0.0,85,0.00,,,0.01,,2013-02-28 01:32:00,
2013-02-27 20:42:00,45.0,41.0,29.70,North,0,0.0,0.0,85,0.00,,,0.01,,2013-02-28 01:42:00,
2013-02-27 20:52:00,45.0,41.0,29.70,North,0,0.0,0.0,85,0.00,,,0.01,,2013-02-28 01:52:00,
2013-02-27 21:01:00,44.0,40.0,29.69,North,0,0.0,0.0,86,0.00,,,0.01,,2013-02-28 02:01:00,
2013-02-27 21:11:00,44.0,40.0,29.69,North,0,0.0,0.0,86,0.00,,,0.01,,2013-02-28 02:11:00,
2013-02-27 21:22:00,43.0,39.0,29.69,North,0,0.0,0.0,87,0.00,,,0.01,,2013-02-28 02:22:00,
2013-02-27 21:32:00,43.0,40.0,29.69,North,0,0.0,0.0,88,0.00,,,0.01,,2013-02-28 02:32:00,
2013-02-27 21:42:00,43.0,40.0,29.69,North,0,0.0,0.0,88,0.00,,,0.01,,2013-02-28 02:42:00,
2013-02-27 21:52:00,43.0,40.0,29.69,North,0,0.0,0.0,88,0.00,,,0.01,,2013-02-28 02:52:00,
2013-02-27 22:02:00,42.0,39.0,29.70,North,0,0.0,0.0,90,0.00,,,0.01,,2013-02-28 03:02:00,
2013-02-27 22:11:00,42.0,39.0,29.70,North,0,0.0,0.0,90,0.00,,,0.01,,2013-02-28 03:11:00,
2013-02-27 22:21:00,42.0,39.0,29.70,North,0,0.0,0.0,90,0.00,,,0.01,,2013-02-28 03:21:00,
2013-02-27 22:32:00,41.0,39.0,29.70,North,0,0.0,0.0,91,0.00,,,0.01,,2013-02-28 03:32:00,
2013-02-27 22:42:00,41.0,39.0,29.70,North,0,0.0,0.0,91,0.00,,,0.01,,2013-02-28 03:42:00,
2013-02-27 22:52:00,41.0,39.0,29.70,North,0,0.0,0.0,92,0.00,,,0.01,,2013-02-28 03:52:00,
2013-02-27 23:02:00,41.0,39.0,29.70,North,0,0.0,0.0,92,0.00,,,0.01,,2013-02-28 04:02:00,
2013-02-27 23:11:00,41.0,39.0,29.70,North,0,0.0,0.0,92,0.00,,,0.01,,2013-02-28 04:11:00,
2013-02-27 23:22:00,40.0,38.0,29.69,North,0,0.0,0.0,93,0.00,,,0.01,,2013-02-28 04:22:00,
2013-02-27 23:32:00,39.0,37.0,29.68,North,0,0.0,0.0,93,0.00,,,0.01,,2013-02-28 04:32:00,
2013-02-27 23:42:00,39.0,37.0,29.68,North,0,0.0,0.0,93,0.00,,,0.01,,2013-02-28 04:42:00,
2013-02-27 23:52:00,39.0,37.0,29.68,North,0,0.0,0.0,94,0.00,,,0.01,,2013-02-28 04:52:00,